Time;durP1;ratioP1;P1;durP2;ratioP2;P2;SDS_P1;SDS_P2;PMS_P1;PMS_P2;Temp;Humidity;BMP_temperature;BMP_pressure;BME280_temperature;BME280_humidity;BME280_pressure;Samples;Min_cycle;Max_cycle;Signal;HPM_P1;HPM_P2
2023/12/20 00:00:26;;;;;;;13.32;5.43;;;9.60;56.30;;;;;;7757227;22;20014;-78
2023/12/20 00:03:26;;;;;;;10.45;5.07;;;9.60;56.50;;;;;;7782832;22;20032;-77
2023/12/20 00:06:27;;;;;;;11.48;5.10;;;9.50;56.50;;;;;;7781855;22;20030;-77
2023/12/20 00:09:29;;;;;;;10.35;4.45;;;9.50;56.60;;;;;;7809258;22;20045;-80
2023/12/20 00:12:29;;;;;;;14.63;5.95;;;9.50;56.60;;;;;;7757311;22;20026;-76
2023/12/20 00:15:30;;;;;;;8.95;5.05;;;9.60;56.60;;;;;;7757521;22;20306;-79
2023/12/20 00:18:33;;;;;;;14.15;6.15;;;9.50;56.50;;;;;;7812669;22;20539;-77
2023/12/20 00:21:34;;;;;;;12.30;5.97;;;9.50;56.50;;;;;;7812020;22;20174;-76
2023/12/20 00:24:35;;;;;;;14.15;5.97;;;9.50;56.70;;;;;;7758480;22;20377;-78
2023/12/20 00:27:36;;;;;;;15.25;5.13;;;9.40;56.70;;;;;;7812340;22;20075;-78
2023/12/20 00:30:38;;;;;;;13.45;5.57;;;9.40;57.30;;;;;;7812491;22;20394;-77
2023/12/20 00:33:43;;;;;;;11.93;5.45;;;9.40;56.80;;;;;;7759077;22;19996;-77
2023/12/20 00:36:47;;;;;;;8.00;4.32;;;9.30;57.00;;;;;;7759156;22;20441;-76
2023/12/20 00:39:48;;;;;;;10.27;5.18;;;9.30;57.20;;;;;;7785499;22;20067;-78
2023/12/20 00:42:49;;;;;;;12.23;4.95;;;9.20;57.50;;;;;;7784281;22;20028;-77
2023/12/20 00:45:50;;;;;;;16.35;4.60;;;9.20;57.60;;;;;;7784758;22;20003;-78
2023/12/20 00:48:50;;;;;;;13.38;5.35;;;9.20;57.70;;;;;;7758605;22;20421;-78
2023/12/20 00:51:52;;;;;;;13.00;5.45;;;9.20;57.80;;;;;;7784228;22;20401;-78
2023/12/20 00:54:53;;;;;;;11.90;5.03;;;9.30;57.90;;;;;;7758494;22;20010;-77
2023/12/20 00:57:54;;;;;;;8.23;4.63;;;9.30;57.90;;;;;;7758402;22;20341;-77
2023/12/20 01:00:55;;;;;;;12.38;4.75;;;9.30;57.80;;;;;;7782813;22;20041;-78
2023/12/20 01:03:57;;;;;;;12.00;6.35;;;9.40;57.80;;;;;;7783019;22;20103;-76
2023/12/20 01:06:59;;;;;;;17.10;6.07;;;9.40;57.70;;;;;;7811424;22;20763;-79
2023/12/20 01:10:00;;;;;;;13.23;6.10;;;9.40;57.60;;;;;;7757314;22;20421;-78
2023/12/20 01:13:02;;;;;;;12.98;5.90;;;9.40;57.60;;;;;;7759452;22;20030;-77
2023/12/20 01:16:03;;;;;;;13.55;5.78;;;9.50;57.60;;;;;;7784381;22;20019;-77
2023/12/20 01:19:04;;;;;;;12.57;5.65;;;9.40;57.50;;;;;;7812369;22;20046;-77
2023/12/20 01:22:05;;;;;;;10.18;5.10;;;9.50;57.50;;;;;;7784665;22;20371;-77
2023/12/20 01:25:08;;;;;;;23.35;5.72;;;9.50;57.50;;;;;;7811818;22;20081;-77
2023/12/20 01:28:09;;;;;;;20.55;6.20;;;9.50;57.60;;;;;;7811783;22;20003;-77
2023/12/20 01:31:09;;;;;;;14.95;5.28;;;9.40;57.60;;;;;;7732673;22;20045;-77
2023/12/20 01:34:12;;;;;;;14.10;5.20;;;9.30;57.70;;;;;;7783800;22;19991;-75
2023/12/20 01:37:14;;;;;;;12.77;6.63;;;9.30;57.80;;;;;;7783476;22;20326;-76
2023/12/20 01:40:16;;;;;;;13.07;5.97;;;9.30;57.90;;;;;;7783763;22;20003;-77
2023/12/20 01:43:17;;;;;;;10.90;5.70;;;9.40;57.90;;;;;;7758244;22;20030;-78
2023/12/20 01:46:19;;;;;;;16.85;5.22;;;9.40;57.90;;;;;;7733514;22;20019;-76
2023/12/20 01:49:21;;;;;;;15.85;6.18;;;9.40;57.80;;;;;;7784197;22;20431;-77
2023/12/20 01:52:25;;;;;;;10.15;5.03;;;9.40;57.80;;;;;;7756913;22;20465;-75
2023/12/20 01:55:29;;;;;;;13.93;5.80;;;9.50;57.70;;;;;;7757590;22;19996;-76
2023/12/20 01:58:32;;;;;;;12.10;5.45;;;9.50;57.60;;;;;;7783422;22;20431;-76
2023/12/20 02:01:33;;;;;;;12.00;5.43;;;9.60;57.50;;;;;;7782464;22;20010;-77
2023/12/20 02:04:34;;;;;;;11.23;5.70;;;9.60;57.50;;;;;;7811257;22;20052;-77
2023/12/20 02:07:35;;;;;;;9.60;6.05;;;9.60;57.50;;;;;;7811571;22;20007;-76
2023/12/20 02:10:40;;;;;;;12.55;5.95;;;9.50;57.50;;;;;;7810993;22;20108;-77
2023/12/20 02:13:41;;;;;;;14.88;6.72;;;9.60;57.50;;;;;;7783806;22;19999;-76
2023/12/20 02:16:43;;;;;;;18.90;6.95;;;9.50;57.60;;;;;;7783325;22;20433;-76
2023/12/20 02:19:44;;;;;;;12.30;5.53;;;9.50;57.60;;;;;;7756901;22;20082;-78
2023/12/20 02:22:46;;;;;;;19.15;6.35;;;9.40;57.70;;;;;;7783388;22;19995;-75
2023/12/20 02:25:47;;;;;;;10.63;5.47;;;9.30;57.90;;;;;;7782616;22;20056;-79
2023/12/20 02:28:50;;;;;;;14.20;6.72;;;9.30;58.70;;;;;;7781797;22;20009;-77
2023/12/20 02:31:51;;;;;;;13.98;6.43;;;9.20;58.20;;;;;;7781593;22;20033;-78
2023/12/20 02:34:54;;;;;;;13.32;6.88;;;9.20;58.40;;;;;;7757332;22;20021;-76
2023/12/20 02:37:55;;;;;;;12.90;5.20;;;9.20;58.50;;;;;;7731488;22;20104;-76
2023/12/20 02:40:58;;;;;;;16.10;7.13;;;9.10;58.60;;;;;;7810290;22;20011;-77
2023/12/20 02:44:01;;;;;;;12.50;6.47;;;9.20;58.80;;;;;;7757427;22;20180;-77
2023/12/20 02:47:06;;;;;;;16.55;7.18;;;9.10;58.80;;;;;;7782010;22;20110;-77
2023/12/20 02:50:08;;;;;;;12.75;7.07;;;9.10;58.90;;;;;;7756658;22;20003;-77
2023/12/20 02:53:09;;;;;;;10.23;4.95;;;9.10;59.00;;;;;;7757275;22;20036;-78
2023/12/20 02:56:10;;;;;;;19.98;6.07;;;9.10;59.10;;;;;;7757315;22;20003;-76
2023/12/20 02:59:12;;;;;;;14.70;5.70;;;9.10;59.20;;;;;;7757065;22;20082;-78
2023/12/20 03:02:13;;;;;;;12.80;5.97;;;9.10;59.20;;;;;;7756617;22;20077;-77
2023/12/20 03:05:14;;;;;;;16.10;7.13;;;9.10;59.20;;;;;;7757054;22;20411;-76
2023/12/20 03:08:15;;;;;;;14.45;6.00;;;9.10;59.20;;;;;;7783077;22;20013;-76
2023/12/20 03:11:16;;;;;;;12.20;6.47;;;9.10;59.20;;;;;;7756784;22;20042;-80
2023/12/20 03:14:16;;;;;;;13.07;5.50;;;9.20;59.10;;;;;;7782217;22;20037;-77
2023/12/20 03:17:20;;;;;;;11.43;5.95;;;9.30;59.00;;;;;;7756913;22;20059;-78
2023/12/20 03:20:22;;;;;;;25.33;7.82;;;9.30;58.90;;;;;;7781820;22;20006;-76
2023/12/20 03:23:26;;;;;;;12.43;5.80;;;9.30;58.80;;;;;;7756267;22;19999;-76
2023/12/20 03:26:27;;;;;;;15.95;5.82;;;9.40;58.80;;;;;;7809542;22;20166;-77
2023/12/20 03:29:27;;;;;;;16.25;6.45;;;9.40;58.80;;;;;;7756666;22;20417;-76
2023/12/20 03:32:28;;;;;;;10.88;6.10;;;9.40;58.80;;;;;;7756281;22;20023;-76
2023/12/20 03:35:29;;;;;;;16.27;7.07;;;9.40;58.80;;;;;;7781786;22;20237;-77
2023/12/20 03:38:30;;;;;;;13.15;6.10;;;9.40;58.80;;;;;;7809440;22;19991;-78
2023/12/20 03:41:31;;;;;;;27.83;6.90;;;9.40;58.90;;;;;;7782300;22;20100;-78
2023/12/20 03:44:32;;;;;;;22.60;6.05;;;9.40;58.90;;;;;;7781813;22;20014;-76
2023/12/20 03:47:34;;;;;;;13.30;5.68;;;9.40;58.90;;;;;;7810622;22;19999;-76
2023/12/20 03:50:35;;;;;;;15.80;7.38;;;9.40;58.90;;;;;;7782726;22;20082;-76
2023/12/20 03:53:39;;;;;;;15.73;6.20;;;9.50;58.90;;;;;;7783994;22;19995;-77
2023/12/20 03:56:41;;;;;;;16.92;6.90;;;9.50;58.80;;;;;;7812316;22;20077;-76
2023/12/20 03:59:42;;;;;;;17.02;6.82;;;9.60;58.80;;;;;;7812177;22;20066;-77
2023/12/20 04:02:44;;;;;;;10.85;5.88;;;9.60;58.60;;;;;;7785287;22;20021;-77
2023/12/20 04:05:46;;;;;;;20.13;7.03;;;9.70;58.60;;;;;;7783477;22;20305;-77
2023/12/20 04:08:47;;;;;;;12.20;6.78;;;9.60;58.40;;;;;;7758560;22;20007;-78
2023/12/20 04:11:49;;;;;;;12.70;6.05;;;9.60;58.40;;;;;;7782983;22;20085;-79
2023/12/20 04:14:50;;;;;;;14.75;7.20;;;9.60;58.30;;;;;;7783744;22;20607;-76
2023/12/20 04:17:52;;;;;;;13.40;6.28;;;9.60;58.30;;;;;;7783555;22;20087;-78
2023/12/20 04:20:53;;;;;;;14.00;6.60;;;9.50;58.40;;;;;;7783548;22;20035;-76
2023/12/20 04:23:54;;;;;;;13.80;6.97;;;9.50;58.60;;;;;;7783592;22;20086;-76
2023/12/20 04:26:55;;;;;;;15.48;6.30;;;9.50;58.70;;;;;;7783714;22;20397;-76
2023/12/20 04:29:56;;;;;;;13.48;6.82;;;9.50;58.80;;;;;;7810387;22;20003;-76
2023/12/20 04:32:58;;;;;;;16.75;7.13;;;9.50;58.80;;;;;;7784207;22;20075;-76
2023/12/20 04:36:00;;;;;;;9.57;6.07;;;9.50;58.90;;;;;;7758639;22;20059;-76
2023/12/20 04:39:00;;;;;;;17.30;7.57;;;9.50;59.00;;;;;;7811725;22;20034;-76
2023/12/20 04:42:02;;;;;;;15.07;6.75;;;9.50;59.20;;;;;;7783061;22;20007;-76
2023/12/20 04:45:03;;;;;;;13.80;7.32;;;9.50;59.30;;;;;;7757442;22;20111;-76
2023/12/20 04:48:04;;;;;;;14.25;6.07;;;9.50;59.50;;;;;;7757806;22;20003;-75
2023/12/20 04:51:06;;;;;;;16.15;6.35;;;9.50;59.50;;;;;;7757976;22;20112;-77
2023/12/20 04:54:06;;;;;;;14.65;6.40;;;9.50;59.70;;;;;;7783366;22;20074;-75
2023/12/20 04:57:07;;;;;;;14.48;6.55;;;9.50;59.80;;;;;;7783484;22;20010;-77
2023/12/20 05:00:09;;;;;;;15.60;6.72;;;9.50;59.90;;;;;;7810887;22;19995;-76
2023/12/20 05:03:15;;;;;;;14.10;6.88;;;9.50;60.10;;;;;;7810459;22;20150;-76
2023/12/20 05:06:16;;;;;;;12.23;5.85;;;9.40;60.20;;;;;;7811588;22;20053;-77
2023/12/20 05:09:19;;;;;;;14.43;6.40;;;9.40;60.50;;;;;;7782376;22;20050;-77
2023/12/20 05:12:19;;;;;;;11.02;6.38;;;9.40;60.80;;;;;;7758446;22;20103;-76
2023/12/20 05:15:21;;;;;;;12.80;6.10;;;9.30;61.00;;;;;;7811645;22;20066;-77
2023/12/20 05:18:24;;;;;;;11.63;5.78;;;9.30;61.30;;;;;;7757995;22;20003;-77
2023/12/20 05:21:25;;;;;;;13.25;5.60;;;9.30;61.60;;;;;;7758163;22;20122;-76
2023/12/20 05:24:26;;;;;;;16.60;7.30;;;9.20;61.90;;;;;;7757152;22;20082;-77
2023/12/20 05:27:26;;;;;;;14.55;7.72;;;9.20;62.00;;;;;;7782005;22;20368;-76
2023/12/20 05:30:29;;;;;;;11.93;6.43;;;9.20;62.10;;;;;;7782580;22;20030;-76
2023/12/20 05:33:30;;;;;;;15.30;6.22;;;9.20;62.10;;;;;;7782916;22;20023;-77
2023/12/20 05:36:31;;;;;;;15.07;6.10;;;9.20;62.20;;;;;;7784255;22;20333;-77
2023/12/20 05:39:36;;;;;;;16.83;5.90;;;9.30;62.20;;;;;;7782758;22;20113;-76
2023/12/20 05:42:40;;;;;;;15.57;7.30;;;9.30;62.20;;;;;;7757209;22;20007;-75
2023/12/20 05:45:42;;;;;;;13.63;6.45;;;9.20;62.20;;;;;;7782539;22;20345;-76
2023/12/20 05:48:43;;;;;;;15.55;6.95;;;9.30;62.40;;;;;;7756784;22;20022;-76
2023/12/20 05:51:45;;;;;;;12.73;6.93;;;9.20;62.30;;;;;;7810828;22;20126;-76
2023/12/20 05:54:47;;;;;;;14.05;6.93;;;9.20;62.40;;;;;;7756707;22;20003;-77
2023/12/20 05:57:48;;;;;;;15.82;6.20;;;9.30;62.40;;;;;;7732500;22;20448;-76
2023/12/20 06:00:49;;;;;;;15.63;7.28;;;9.40;62.40;;;;;;7781949;22;19999;-76
2023/12/20 06:03:50;;;;;;;21.83;7.53;;;9.30;62.30;;;;;;7752848;22;20014;-76
2023/12/20 06:06:52;;;;;;;14.70;7.80;;;9.30;62.40;;;;;;7777779;22;20039;-76
2023/12/20 06:09:55;;;;;;;15.60;6.75;;;9.30;62.30;;;;;;7807973;22;20003;-78
2023/12/20 06:12:58;;;;;;;13.63;7.15;;;9.30;62.40;;;;;;7753093;22;20011;-76
2023/12/20 06:16:01;;;;;;;13.95;6.85;;;9.30;62.40;;;;;;7778961;22;20007;-77
2023/12/20 06:19:03;;;;;;;11.90;6.43;;;9.30;62.40;;;;;;7754978;22;19995;-77
2023/12/20 06:22:03;;;;;;;21.13;8.18;;;9.30;62.30;;;;;;7728856;22;20037;-77
2023/12/20 06:25:05;;;;;;;12.02;6.43;;;9.30;62.20;;;;;;7778814;22;20003;-75
2023/12/20 06:28:06;;;;;;;15.52;6.70;;;9.30;62.20;;;;;;7807538;22;20370;-76
2023/12/20 06:31:07;;;;;;;25.90;8.93;;;9.40;62.30;;;;;;7806139;22;20007;-73
2023/12/20 06:34:08;;;;;;;35.00;13.70;;;9.40;62.40;;;;;;7778553;22;20083;-75
2023/12/20 06:37:09;;;;;;;42.63;14.90;;;9.40;62.20;;;;;;7779260;22;20002;-76
2023/12/20 06:40:11;;;;;;;56.95;17.00;;;9.40;62.20;;;;;;7777493;22;20041;-74
2023/12/20 06:43:13;;;;;;;55.30;19.23;;;9.40;62.20;;;;;;7750869;22;20102;-75
2023/12/20 06:46:14;;;;;;;22.92;10.73;;;9.40;62.20;;;;;;7751949;22;20015;-76
2023/12/20 06:49:15;;;;;;;32.17;10.70;;;9.50;62.30;;;;;;7778953;22;20050;-77
2023/12/20 06:52:17;;;;;;;20.40;8.15;;;9.40;62.50;;;;;;7752477;22;20011;-77
2023/12/20 06:55:19;;;;;;;16.45;7.95;;;9.40;62.70;;;;;;7778158;22;20007;-77
2023/12/20 06:58:20;;;;;;;19.13;7.32;;;9.40;62.80;;;;;;7776728;22;20305;-76
2023/12/20 07:01:23;;;;;;;17.75;8.50;;;9.40;62.80;;;;;;7804449;22;20063;-75
2023/12/20 07:04:24;;;;;;;21.02;7.90;;;9.40;62.90;;;;;;7751720;22;20300;-75
2023/12/20 07:07:26;;;;;;;12.43;6.45;;;9.40;62.90;;;;;;7780537;22;20003;-75
2023/12/20 07:10:28;;;;;;;13.85;6.72;;;9.40;62.90;;;;;;7807765;22;20007;-75
2023/12/20 07:13:30;;;;;;;19.35;8.25;;;9.50;63.00;;;;;;7756387;22;20046;-75
2023/12/20 07:16:31;;;;;;;21.95;8.50;;;9.40;62.90;;;;;;7782328;22;20077;-75
2023/12/20 07:19:33;;;;;;;16.10;6.68;;;9.50;63.00;;;;;;7782298;22;19999;-76
2023/12/20 07:22:34;;;;;;;15.98;7.63;;;9.40;63.00;;;;;;7781820;22;20007;-76
2023/12/20 07:25:35;;;;;;;16.42;7.43;;;9.50;63.20;;;;;;7781438;22;20013;-77
2023/12/20 07:28:36;;;;;;;29.58;8.65;;;9.50;63.20;;;;;;7781559;22;20258;-75
2023/12/20 07:31:38;;;;;;;17.08;8.40;;;9.50;63.30;;;;;;7781629;22;20011;-75
2023/12/20 07:34:38;;;;;;;23.20;8.38;;;9.50;63.20;;;;;;7781069;22;20005;-75
2023/12/20 07:37:39;;;;;;;14.15;7.25;;;9.50;63.20;;;;;;7755323;22;20603;-76
2023/12/20 07:40:43;;;;;;;18.63;7.75;;;9.50;63.30;;;;;;7755964;22;20531;-75
2023/12/20 07:43:44;;;;;;;17.13;7.43;;;9.50;63.30;;;;;;7810021;22;20124;-74
2023/12/20 07:46:45;;;;;;;17.60;8.65;;;9.50;63.30;;;;;;7781887;22;20015;-75
2023/12/20 07:49:46;;;;;;;14.55;6.88;;;9.50;63.40;;;;;;7782620;22;20428;-75
2023/12/20 07:52:48;;;;;;;17.38;7.63;;;9.50;63.40;;;;;;7756544;22;20011;-75
2023/12/20 07:55:49;;;;;;;24.33;7.10;;;9.50;63.50;;;;;;7782558;22;20010;-74
2023/12/20 07:58:50;;;;;;;18.02;8.18;;;9.50;63.60;;;;;;7755288;22;20078;-76
2023/12/20 08:01:51;;;;;;;20.00;8.13;;;9.50;63.70;;;;;;7780869;22;20007;-76
2023/12/20 08:04:53;;;;;;;15.10;7.10;;;9.60;63.70;;;;;;7809127;22;20023;-74
2023/12/20 08:07:56;;;;;;;15.13;7.65;;;9.60;63.70;;;;;;7780406;22;20459;-76
2023/12/20 08:10:59;;;;;;;17.60;7.63;;;9.60;63.60;;;;;;7780498;22;20263;-75
2023/12/20 08:14:00;;;;;;;14.55;6.95;;;9.60;63.50;;;;;;7755402;22;20057;-78
2023/12/20 08:17:01;;;;;;;21.15;7.30;;;9.70;63.50;;;;;;7755198;22;20079;-76
2023/12/20 08:20:02;;;;;;;13.15;6.40;;;9.70;63.30;;;;;;7808628;22;20004;-76
2023/12/20 08:23:03;;;;;;;18.27;6.95;;;9.70;63.30;;;;;;7780827;22;20136;-74
2023/12/20 08:26:08;;;;;;;15.23;7.50;;;9.70;63.20;;;;;;7754391;22;20044;-75
2023/12/20 08:29:09;;;;;;;18.65;8.95;;;9.70;63.30;;;;;;7808524;22;20019;-75
2023/12/20 08:32:09;;;;;;;24.33;12.02;;;9.80;63.40;;;;;;7780795;22;20083;-76
2023/12/20 08:35:10;;;;;;;16.50;7.93;;;9.80;63.40;;;;;;7754722;22;20316;-75
2023/12/20 08:38:16;;;;;;;13.77;7.93;;;9.90;63.40;;;;;;7810701;22;20102;-76
2023/12/20 08:41:17;;;;;;;19.23;8.45;;;9.90;63.30;;;;;;7782526;22;20050;-75
2023/12/20 08:44:18;;;;;;;21.10;6.85;;;9.90;63.40;;;;;;7756859;22;20089;-75
2023/12/20 08:47:19;;;;;;;16.30;7.95;;;9.90;63.30;;;;;;7782373;22;20013;-76
2023/12/20 08:50:20;;;;;;;22.33;9.13;;;9.90;63.30;;;;;;7782575;22;20014;-75
2023/12/20 08:53:21;;;;;;;17.15;8.20;;;9.80;63.40;;;;;;7783086;22;20010;-76
2023/12/20 08:56:22;;;;;;;20.85;9.07;;;9.60;63.40;;;;;;7783168;22;20400;-76
2023/12/20 08:59:23;;;;;;;19.05;8.25;;;9.80;63.80;;;;;;7810805;22;20019;-74
2023/12/20 09:02:24;;;;;;;19.88;7.75;;;9.80;63.90;;;;;;7810844;22;20007;-75
2023/12/20 09:05:25;;;;;;;17.20;7.97;;;9.80;63.90;;;;;;7782403;22;20003;-76
2023/12/20 09:08:26;;;;;;;14.75;7.93;;;9.90;64.00;;;;;;7782824;22;20062;-76
2023/12/20 09:11:28;;;;;;;21.38;8.82;;;9.90;63.80;;;;;;7758914;22;20011;-76
2023/12/20 09:14:29;;;;;;;14.93;7.70;;;10.00;63.80;;;;;;7811966;22;20369;-76
2023/12/20 09:17:29;;;;;;;19.55;8.15;;;10.10;63.70;;;;;;7760300;22;20067;-75
2023/12/20 09:20:31;;;;;;;15.98;7.55;;;10.10;63.50;;;;;;7783763;22;20015;-77
2023/12/20 09:23:32;;;;;;;12.68;7.65;;;10.20;63.40;;;;;;7811199;22;20013;-76
2023/12/20 09:26:34;;;;;;;13.05;7.63;;;10.20;63.20;;;;;;7811317;22;20003;-76
2023/12/20 09:29:35;;;;;;;21.77;11.60;;;10.20;63.10;;;;;;7757478;22;20018;-75
2023/12/20 09:32:36;;;;;;;15.10;7.65;;;10.20;63.20;;;;;;7782625;22;20011;-75
2023/12/20 09:35:44;;;;;;;14.13;7.90;;;10.30;63.30;;;;;;7784610;22;20007;-76
2023/12/20 09:39:11;;;;;;;22.90;7.32;;;10.30;63.20;;;;;;7789263;22;20011;-77
2023/12/20 09:42:17;;;;;;;26.88;11.60;;;10.40;63.20;;;;;;7811323;22;19995;-77
2023/12/20 09:45:24;;;;;;;17.83;8.23;;;10.40;63.10;;;;;;7810659;22;20015;-76
2023/12/20 09:48:28;;;;;;;17.25;8.57;;;10.40;63.00;;;;;;7782315;22;19995;-77
2023/12/20 09:51:29;;;;;;;15.40;7.82;;;10.50;63.00;;;;;;7758166;22;20015;-77
2023/12/20 09:54:31;;;;;;;17.80;8.27;;;10.60;62.90;;;;;;7759124;22;20089;-76
2023/12/20 09:57:35;;;;;;;18.48;9.10;;;10.60;62.90;;;;;;7783744;22;20094;-76
2023/12/20 10:00:35;;;;;;;18.83;9.00;;;10.60;62.90;;;;;;7758155;22;20007;-74
2023/12/20 10:03:44;;;;;;;17.90;8.20;;;10.60;62.90;;;;;;7782883;22;20051;-76
2023/12/20 10:06:45;;;;;;;20.17;8.35;;;10.60;63.00;;;;;;7757536;22;20102;-77
2023/12/20 10:09:47;;;;;;;22.27;8.05;;;10.60;62.90;;;;;;7756657;22;20037;-76
2023/12/20 10:13:10;;;;;;;16.23;8.15;;;10.70;63.10;;;;;;7782940;22;20038;-77
2023/12/20 10:16:10;;;;;;;16.90;7.88;;;10.80;63.10;;;;;;7782153;22;20181;-77
2023/12/20 10:19:11;;;;;;;22.10;9.65;;;10.80;62.80;;;;;;7756466;22;19996;-78
2023/12/20 10:22:14;;;;;;;20.00;8.77;;;10.90;62.80;;;;;;7810301;22;20169;-77
2023/12/20 10:25:15;;;;;;;20.10;9.88;;;11.00;62.90;;;;;;7757415;22;20003;-78
2023/12/20 10:28:22;;;;;;;25.77;8.50;;;11.00;62.60;;;;;;7756646;22;20026;-76
2023/12/20 10:31:32;;;;;;;26.80;9.50;;;11.10;62.60;;;;;;7784152;22;20015;-77
2023/12/20 10:34:33;;;;;;;22.83;8.20;;;11.20;62.60;;;;;;7782500;22;20025;-75
2023/12/20 10:37:38;;;;;;;23.58;9.30;;;11.30;62.30;;;;;;7782472;22;20011;-76
2023/12/20 10:40:42;;;;;;;19.55;9.60;;;11.30;62.00;;;;;;7757121;22;20413;-77
2023/12/20 10:43:49;;;;;;;20.80;9.10;;;11.30;62.00;;;;;;7757750;22;20352;-76
2023/12/20 10:46:51;;;;;;;8.60;3.85;;;11.30;62.30;;;;;;7782567;22;20007;-77
2023/12/20 10:49:55;;;;;;;7.30;3.85;;;11.40;62.40;;;;;;7782580;22;19999;-77
2023/12/20 10:52:57;;;;;;;21.13;7.57;;;11.60;62.60;;;;;;7756730;22;20056;-76
2023/12/20 10:56:02;;;;;;;14.85;5.88;;;11.50;62.70;;;;;;7782681;22;20471;-75
2023/12/20 10:59:05;;;;;;;4.25;2.90;;;11.70;62.30;;;;;;7810108;22;20000;-76
2023/12/20 11:02:06;;;;;;;18.60;6.82;;;12.00;62.30;;;;;;7810672;22;20003;-77
2023/12/20 11:05:13;;;;;;;9.43;4.78;;;12.50;61.50;;;;;;7782057;22;19999;-76
2023/12/20 11:08:38;;;;;;;12.65;7.07;;;13.20;59.40;;;;;;7781472;22;19995;-77
2023/12/20 11:12:22;;;;;;;19.88;8.70;;;13.40;58.60;;;;;;7781903;22;20500;-76
2023/12/20 11:15:24;;;;;;;22.55;9.73;;;13.30;58.30;;;;;;7781662;22;20014;-75
2023/12/20 11:18:33;;;;;;;14.88;6.75;;;13.10;58.40;;;;;;7783136;22;20080;-77
2023/12/20 11:21:40;;;;;;;13.35;5.60;;;12.90;58.70;;;;;;7781606;22;20091;-79
2023/12/20 11:24:46;;;;;;;9.88;4.53;;;12.60;58.80;;;;;;7810729;22;20067;-75
2023/12/20 11:28:08;;;;;;;10.82;5.35;;;12.50;59.30;;;;;;7757756;22;20003;-77
2023/12/20 11:31:15;;;;;;;10.93;4.93;;;12.40;59.50;;;;;;7780837;22;20136;-75
2023/12/20 11:34:17;;;;;;;8.68;3.97;;;12.30;59.60;;;;;;7781829;22;19999;-75
2023/12/20 11:37:20;;;;;;;11.45;6.85;;;12.20;59.70;;;;;;7781573;22;20103;-76
2023/12/20 11:40:25;;;;;;;8.57;4.22;;;12.20;59.80;;;;;;7809446;22;20006;-75
2023/12/20 11:43:39;;;;;;;11.95;4.90;;;12.10;59.80;;;;;;7808397;22;20099;-76
2023/12/20 11:46:41;;;;;;;4.82;2.88;;;12.00;60.00;;;;;;7781242;22;20095;-75
2023/12/20 11:49:42;;;;;;;5.13;2.47;;;12.00;60.30;;;;;;7755903;22;20007;-75
2023/12/20 11:52:43;;;;;;;6.07;3.08;;;11.90;60.40;;;;;;7731058;22;20039;-75
2023/12/20 11:55:48;;;;;;;8.05;3.67;;;11.90;60.60;;;;;;7782671;22;20070;-77
2023/12/20 11:58:49;;;;;;;6.65;4.10;;;11.90;60.90;;;;;;7777013;22;20094;-77
2023/12/20 12:01:51;;;;;;;7.00;3.80;;;11.90;61.10;;;;;;7777026;22;20012;-76
2023/12/20 12:04:53;;;;;;;5.93;3.15;;;11.90;61.20;;;;;;7776941;22;20003;-76
2023/12/20 12:07:54;;;;;;;7.63;3.13;;;11.90;61.10;;;;;;7776806;22;20099;-74
2023/12/20 12:10:55;;;;;;;8.50;4.20;;;11.90;61.20;;;;;;7805687;22;20019;-75
2023/12/20 12:13:57;;;;;;;10.98;3.33;;;11.90;61.40;;;;;;7754463;22;20075;-77
2023/12/20 12:16:59;;;;;;;6.22;3.38;;;11.90;61.50;;;;;;7780628;22;19995;-75
2023/12/20 12:20:05;;;;;;;6.68;3.42;;;11.90;61.70;;;;;;7781175;22;20204;-76
2023/12/20 12:23:09;;;;;;;7.00;4.20;;;11.90;61.70;;;;;;7779737;22;20021;-74
2023/12/20 12:26:11;;;;;;;8.88;3.95;;;11.90;61.80;;;;;;7778510;22;20007;-75
2023/12/20 12:29:15;;;;;;;7.28;4.13;;;11.90;61.90;;;;;;7778752;22;20066;-75
2023/12/20 12:32:16;;;;;;;17.35;3.17;;;11.90;62.10;;;;;;7779010;22;20010;-75
2023/12/20 12:35:17;;;;;;;6.80;4.07;;;11.90;62.20;;;;;;7780018;22;20353;-75
2023/12/20 12:38:25;;;;;;;12.30;3.78;;;11.90;62.20;;;;;;7806955;22;19996;-75
2023/12/20 12:41:26;;;;;;;8.02;4.25;;;11.80;62.20;;;;;;7754049;22;20373;-75
2023/12/20 12:44:27;;;;;;;7.80;3.53;;;11.90;62.00;;;;;;7780793;22;19999;-76
2023/12/20 12:47:28;;;;;;;8.95;4.15;;;11.90;61.60;;;;;;7780486;22;20393;-78
2023/12/20 12:50:30;;;;;;;7.47;3.92;;;11.90;61.30;;;;;;7807463;22;20049;-75
2023/12/20 12:53:33;;;;;;;5.78;3.42;;;11.90;61.20;;;;;;7781582;22;20061;-78
2023/12/20 12:56:37;;;;;;;6.60;3.97;;;12.00;61.20;;;;;;7810990;22;20041;-76
2023/12/20 12:59:38;;;;;;;12.55;4.45;;;12.00;61.10;;;;;;7811475;22;20396;-77
2023/12/20 13:02:41;;;;;;;8.13;3.60;;;12.10;60.90;;;;;;7757073;22;20007;-76
2023/12/20 13:05:42;;;;;;;8.63;4.22;;;12.10;60.50;;;;;;7758250;22;19999;-76
2023/12/20 13:08:44;;;;;;;4.95;3.17;;;12.20;60.20;;;;;;7752449;22;20704;-77
2023/12/20 13:11:45;;;;;;;6.28;3.70;;;12.20;60.00;;;;;;7778449;22;20398;-75
2023/12/20 13:14:47;;;;;;;5.80;3.28;;;12.30;59.70;;;;;;7807674;22;19999;-76
2023/12/20 13:17:47;;;;;;;10.00;3.67;;;12.30;59.50;;;;;;7777887;22;20006;-75
2023/12/20 13:20:51;;;;;;;8.98;3.95;;;12.30;59.30;;;;;;7777277;22;20475;-74
2023/12/20 13:23:53;;;;;;;4.13;2.78;;;12.40;59.10;;;;;;7806074;22;20007;-75
2023/12/20 13:26:55;;;;;;;10.68;3.53;;;12.40;58.80;;;;;;7807011;22;20003;-75
2023/12/20 13:29:56;;;;;;;7.30;3.25;;;12.50;58.80;;;;;;7753321;22;20011;-75
2023/12/20 13:32:57;;;;;;;5.68;2.55;;;12.60;58.60;;;;;;7777941;22;20022;-76
2023/12/20 13:35:59;;;;;;;4.13;2.17;;;12.60;58.20;;;;;;7806260;22;20094;-74
2023/12/20 13:39:01;;;;;;;3.58;2.20;;;12.70;58.10;;;;;;7806211;22;20076;-73
2023/12/20 13:42:02;;;;;;;5.70;2.63;;;12.80;57.80;;;;;;7779170;22;20401;-75
2023/12/20 13:45:04;;;;;;;9.55;2.47;;;13.00;57.30;;;;;;7778683;22;20007;-76
2023/12/20 13:48:06;;;;;;;4.00;2.17;;;13.10;56.80;;;;;;7778106;22;20059;-75
2023/12/20 13:51:07;;;;;;;8.18;2.55;;;13.20;56.70;;;;;;7753281;22;20120;-75
2023/12/20 13:54:08;;;;;;;5.13;2.72;;;13.20;56.60;;;;;;7754105;22;20009;-76
2023/12/20 13:57:09;;;;;;;6.25;3.08;;;13.30;56.80;;;;;;7778873;22;20083;-76
2023/12/20 14:00:14;;;;;;;4.15;2.35;;;13.30;57.00;;;;;;7778771;22;20072;-76
2023/12/20 14:03:15;;;;;;;4.20;2.75;;;13.20;57.00;;;;;;7808047;22;20488;-75
2023/12/20 14:06:17;;;;;;;5.43;2.47;;;12.90;57.40;;;;;;7778394;22;20007;-75
2023/12/20 14:09:18;;;;;;;6.32;2.55;;;12.70;58.00;;;;;;7778121;22;20007;-76
2023/12/20 14:12:20;;;;;;;5.13;1.95;;;12.50;58.40;;;;;;7778772;22;20011;-76
2023/12/20 14:15:21;;;;;;;4.50;1.80;;;12.40;58.40;;;;;;7806327;22;20072;-76
2023/12/20 14:18:23;;;;;;;2.90;2.03;;;12.40;58.20;;;;;;7778820;22;20026;-76
2023/12/20 14:21:24;;;;;;;3.67;2.15;;;12.30;58.00;;;;;;7779565;22;20087;-76
2023/12/20 14:24:26;;;;;;;3.80;2.15;;;12.10;58.00;;;;;;7781313;22;20150;-76
2023/12/20 14:27:29;;;;;;;2.65;1.65;;;12.00;57.90;;;;;;7806862;22;20043;-73
2023/12/20 14:30:30;;;;;;;5.05;2.28;;;11.90;57.90;;;;;;7778372;22;20068;-76
2023/12/20 14:33:31;;;;;;;2.17;1.80;;;11.80;58.00;;;;;;7778274;22;20140;-76
2023/12/20 14:36:33;;;;;;;6.93;1.50;;;11.60;57.80;;;;;;7805717;22;19999;-76
2023/12/20 14:39:39;;;;;;;2.47;1.25;;;11.60;57.80;;;;;;7778350;22;20290;-76
2023/12/20 14:42:43;;;;;;;6.13;2.05;;;11.50;57.40;;;;;;7806910;22;20062;-75
2023/12/20 14:45:44;;;;;;;1.80;1.20;;;11.50;57.20;;;;;;7806882;22;20102;-77
2023/12/20 14:48:45;;;;;;;6.75;1.45;;;11.40;57.20;;;;;;7778083;22;20389;-77
2023/12/20 14:51:47;;;;;;;1.90;1.27;;;11.40;57.20;;;;;;7778741;22;20355;-76
2023/12/20 14:54:48;;;;;;;1.45;1.30;;;11.40;57.10;;;;;;7752319;22;20019;-76
2023/12/20 14:57:49;;;;;;;2.83;1.40;;;11.40;57.20;;;;;;7780537;22;20075;-74
2023/12/20 15:00:50;;;;;;;2.30;1.60;;;11.40;56.70;;;;;;7779093;22;20003;-75
2023/12/20 15:03:51;;;;;;;1.83;1.33;;;11.50;56.50;;;;;;7752286;22;20011;-76
2023/12/20 15:06:52;;;;;;;5.57;1.67;;;11.50;56.10;;;;;;7805873;22;20078;-78
2023/12/20 15:09:53;;;;;;;2.45;1.15;;;11.50;55.80;;;;;;7752862;22;20219;-75
2023/12/20 15:12:59;;;;;;;2.88;1.35;;;11.40;55.50;;;;;;7778811;22;20313;-75
2023/12/20 15:15:59;;;;;;;6.93;1.85;;;11.50;55.30;;;;;;7778130;22;19995;-75
2023/12/20 15:19:00;;;;;;;3.28;1.10;;;11.40;54.80;;;;;;7752669;22;20030;-76
2023/12/20 15:22:01;;;;;;;3.47;1.60;;;11.50;54.80;;;;;;7753366;22;20023;-76
2023/12/20 15:25:05;;;;;;;2.40;1.52;;;11.50;54.30;;;;;;7781055;22;20076;-77
2023/12/20 15:28:06;;;;;;;7.10;1.02;;;11.50;54.20;;;;;;7809260;22;20070;-75
2023/12/20 15:31:07;;;;;;;1.48;1.38;;;11.50;53.10;;;;;;7808660;22;20025;-75
2023/12/20 15:34:08;;;;;;;1.10;1.00;;;11.50;53.00;;;;;;7809411;22;19996;-74
2023/12/20 15:37:09;;;;;;;1.38;0.93;;;11.50;53.00;;;;;;7756581;22;20018;-76
2023/12/20 15:40:11;;;;;;;2.17;0.73;;;11.50;53.10;;;;;;7756017;22;20051;-76
2023/12/20 15:43:11;;;;;;;1.88;0.82;;;11.50;53.30;;;;;;7781271;22;20102;-75
2023/12/20 15:46:14;;;;;;;3.15;0.85;;;11.50;53.30;;;;;;7783691;22;20106;-76